CheckWX is a tool to help pilots better visualize weather data.  It is not intended as a substitute for an official pre-flight weather briefing.

05:23:50 UTC

KHOU METAR
William P Hobby Airport
Houston, Texas, USA
Current

31 mins ago

KHOU 100453Z 15004KT 8SM FEW016 SCT045 BKN060 OVC250 22/21 A2989 RMK AO2 SLP126 T02220206
Observed
Dec-10 @ 04:53 UTC
Wind
  • 150° at 4 KTS
Visibility
8 SM
Flight Rules
VFR
Cloud Levels
  • Few at 1,600' AGL
  • Scattered at 4,500' AGL
  • Broken at 6,000' AGL
  • Overcast at 25,000' AGL
Temperature
22°C / 72°F
Dewpoint
21°C / 70°F
Humidity
94%
Altimeter
29.89" Hg
Pressure
1012.22 hPa
Previous

52 mins ago

KHOU 100432Z 16003KT 9SM SCT016 BKN048 BKN055 OVC250 22/21 A2989 RMK AO2 T02220206
Observed
Dec-10 @ 04:32 UTC
Wind
  • 160° at 3 KTS
Visibility
9 SM
Flight Rules
VFR
Cloud Levels
  • Scattered at 1,600' AGL
  • Broken at 4,800' AGL
  • Broken at 5,500' AGL
  • Overcast at 25,000' AGL
Temperature
22°C / 72°F
Dewpoint
21°C / 70°F
Humidity
94%
Altimeter
29.89" Hg
Pressure
1012.22 hPa
Previous

2 hours ago

KHOU 100353Z 16003KT 8SM FEW012 BKN019 BKN028 BKN250 22/21 A2988 RMK AO2 RAB40E43 SLP121 P0000 T02170206
Observed
Dec-10 @ 03:53 UTC
Wind
  • 160° at 3 KTS
Visibility
8 SM
Flight Rules
MVFR
Cloud Levels
  • Few at 1,200' AGL
  • Broken at 1,900' AGL
  • Broken at 2,800' AGL
  • Broken at 25,000' AGL
Temperature
22°C / 72°F
Dewpoint
21°C / 70°F
Humidity
94%
Altimeter
29.88" Hg
Pressure
1011.82 hPa
Current Rain
0.01"